createdAt,value
2022-10-10T00:00:47.520Z,13.82
2022-10-10T00:03:35.469Z,14.25
2022-10-10T00:06:21.510Z,9.77
2022-10-10T00:09:07.111Z,12.15
2022-10-10T00:11:52.909Z,12.63
2022-10-10T00:14:38.242Z,14.85
2022-10-10T00:17:23.581Z,12.93
2022-10-10T00:20:15.031Z,18.60
2022-10-10T00:23:00.316Z,15.38
2022-10-10T00:25:46.235Z,11.63
2022-10-10T00:28:32.113Z,15.40
2022-10-10T00:31:17.632Z,15.57
2022-10-10T00:34:03.608Z,13.52
2022-10-10T00:36:49.200Z,17.65
2022-10-10T00:39:37.216Z,10.27
2022-10-10T00:42:22.983Z,13.02
2022-10-10T00:45:41.481Z,15.70
2022-10-10T00:48:41.036Z,14.35
2022-10-10T00:51:26.592Z,13.65
2022-10-10T00:54:15.836Z,12.25
2022-10-10T00:57:06.219Z,14.95
2022-10-10T00:59:53.378Z,14.73
2022-10-10T01:02:41.755Z,16.08
2022-10-10T01:05:27.105Z,16.85
2022-10-10T01:08:13.063Z,13.00
2022-10-10T01:11:32.748Z,14.40
2022-10-10T01:14:38.413Z,17.50
2022-10-10T01:20:33.823Z,12.43
2022-10-10T01:23:35.631Z,16.92
2022-10-10T01:26:39.395Z,14.48
2022-10-10T01:29:37.901Z,15.07
2022-10-10T01:32:40.079Z,17.52
2022-10-10T01:35:40.255Z,17.00
2022-10-10T01:38:44.150Z,15.27
2022-10-10T01:41:40.528Z,15.18
2022-10-10T01:44:25.629Z,15.18
2022-10-10T01:47:11.887Z,14.63
2022-10-10T01:50:03.275Z,14.98
2022-10-10T01:53:15.814Z,14.05
2022-10-10T01:56:27.603Z,14.60
2022-10-10T02:00:11.564Z,16.30
2022-10-10T02:03:07.825Z,15.20
2022-10-10T02:05:59.498Z,14.98
2022-10-10T02:09:03.740Z,17.08
2022-10-10T02:11:49.864Z,19.10
2022-10-10T02:14:41.468Z,15.27
2022-10-10T02:17:27.385Z,15.63
2022-10-10T02:20:16.218Z,16.02
2022-10-10T02:23:01.944Z,21.08
2022-10-10T02:25:52.941Z,18.98
2022-10-10T02:28:48.080Z,15.55
2022-10-10T02:31:38.628Z,15.48
2022-10-10T02:34:28.913Z,12.30
2022-10-10T02:37:16.192Z,14.20
2022-10-10T02:40:04.681Z,16.00
2022-10-10T02:42:52.188Z,16.75
2022-10-10T02:45:39.939Z,13.65
2022-10-10T02:48:27.915Z,19.17
2022-10-10T02:51:14.939Z,17.80
2022-10-10T02:54:00.945Z,18.05
2022-10-10T02:56:46.763Z,17.90
2022-10-10T02:59:34.736Z,20.27
2022-10-10T03:02:19.919Z,16.02
2022-10-10T03:05:06.092Z,14.27
2022-10-10T03:07:51.455Z,16.75
2022-10-10T03:10:36.644Z,18.80
2022-10-10T03:13:22.128Z,15.27
2022-10-10T03:16:07.732Z,12.48
2022-10-10T03:18:52.999Z,14.95
2022-10-10T03:21:38.523Z,14.82
2022-10-10T03:24:24.031Z,25.42
2022-10-10T03:27:09.640Z,20.13
2022-10-10T03:29:55.631Z,19.30
2022-10-10T03:32:43.207Z,18.33
2022-10-10T03:35:28.840Z,18.27
2022-10-10T03:38:15.228Z,19.33
2022-10-10T03:41:00.926Z,13.70
2022-10-10T03:43:46.641Z,16.98
2022-10-10T03:46:33.537Z,16.33
2022-10-10T03:49:19.241Z,15.25
2022-10-10T03:52:04.570Z,15.50
2022-10-10T03:54:49.728Z,16.67
2022-10-10T03:57:35.327Z,18.65
2022-10-10T04:00:20.987Z,27.15
2022-10-10T04:03:06.767Z,21.63
2022-10-10T04:05:52.241Z,22.85
2022-10-10T04:08:37.806Z,17.05
2022-10-10T04:11:23.487Z,18.17
2022-10-10T04:14:08.897Z,17.80
2022-10-10T04:16:54.351Z,16.92
2022-10-10T04:19:40.071Z,18.08
2022-10-10T04:22:25.598Z,18.63
2022-10-10T04:25:11.676Z,21.98
2022-10-10T04:28:00.869Z,16.88
2022-10-10T04:30:47.164Z,15.82
2022-10-10T04:33:32.340Z,20.17
2022-10-10T04:36:17.604Z,16.67
2022-10-10T04:39:03.623Z,22.58
2022-10-10T04:41:49.998Z,19.15
2022-10-10T04:44:35.886Z,22.20
2022-10-10T04:47:21.194Z,15.43
2022-10-10T04:50:07.046Z,16.13
2022-10-10T04:52:53.105Z,18.30
2022-10-10T04:55:38.760Z,18.08
2022-10-10T04:58:27.219Z,19.90
2022-10-10T05:01:12.579Z,18.13
2022-10-10T05:04:01.078Z,18.55
2022-10-10T05:06:46.303Z,21.83
2022-10-10T05:09:33.692Z,20.45
2022-10-10T05:12:18.955Z,22.98
2022-10-10T05:15:04.584Z,23.77
2022-10-10T05:17:50.335Z,17.15
2022-10-10T05:20:39.201Z,22.38
2022-10-10T05:23:24.831Z,17.40
2022-10-10T05:26:10.719Z,23.45
2022-10-10T05:28:56.458Z,19.88
2022-10-10T05:31:41.809Z,21.50
2022-10-10T05:34:27.144Z,21.73
2022-10-10T05:37:12.658Z,23.05
2022-10-10T05:39:58.668Z,23.27
2022-10-10T05:42:45.528Z,17.15
2022-10-10T05:45:30.956Z,19.58
2022-10-10T05:48:16.446Z,20.77
2022-10-10T05:51:02.007Z,21.67
2022-10-10T05:53:48.006Z,29.42
2022-10-10T05:56:33.323Z,19.70
2022-10-10T05:59:18.871Z,19.60
2022-10-10T06:02:04.452Z,23.75
2022-10-10T06:04:49.900Z,27.95
2022-10-10T06:07:59.533Z,24.02
2022-10-10T06:10:47.617Z,23.77
2022-10-10T06:13:32.927Z,20.50
2022-10-10T06:16:18.791Z,22.65
2022-10-10T06:19:04.171Z,16.80
2022-10-10T06:21:49.804Z,19.65
2022-10-10T06:24:35.115Z,18.90
2022-10-10T06:27:23.882Z,24.85
2022-10-10T06:30:10.456Z,24.20
2022-10-10T06:32:57.617Z,20.60
2022-10-10T06:35:44.366Z,16.02
2022-10-10T06:38:32.583Z,23.30
2022-10-10T06:41:18.175Z,17.55
2022-10-10T06:44:04.044Z,23.02
2022-10-10T06:46:49.484Z,16.13
2022-10-10T06:49:39.325Z,23.50
2022-10-10T06:52:25.617Z,20.98
2022-10-10T06:55:10.928Z,18.95
2022-10-10T06:57:56.949Z,22.77
2022-10-10T07:00:48.101Z,16.85
2022-10-10T07:03:34.072Z,24.60
2022-10-10T07:06:19.659Z,21.20
2022-10-10T07:09:05.636Z,18.27
2022-10-10T07:11:50.827Z,21.08
2022-10-10T07:14:36.361Z,20.23
2022-10-10T07:17:21.939Z,18.65
2022-10-10T07:20:07.776Z,26.67
2022-10-10T07:23:03.168Z,20.63
2022-10-10T07:25:48.996Z,19.63
2022-10-10T07:28:34.982Z,20.88
2022-10-10T07:31:20.237Z,15.10
2022-10-10T07:34:06.476Z,16.35
2022-10-10T07:36:57.438Z,29.90
2022-10-10T07:39:42.894Z,27.58
2022-10-10T07:42:31.632Z,15.48
2022-10-10T07:45:17.455Z,15.35
2022-10-10T07:48:03.213Z,17.75
2022-10-10T07:50:48.707Z,17.60
2022-10-10T07:53:34.594Z,16.50
2022-10-10T07:56:19.739Z,22.95
2022-10-10T07:59:05.383Z,13.35
2022-10-10T08:01:55.911Z,19.65
2022-10-10T08:04:41.321Z,17.55
2022-10-10T08:07:26.718Z,19.98
2022-10-10T08:10:12.644Z,15.60
2022-10-10T08:12:58.215Z,17.33
2022-10-10T08:15:44.057Z,20.85
2022-10-10T08:18:32.015Z,11.80
2022-10-10T08:21:18.392Z,19.25
2022-10-10T08:24:04.312Z,12.90
2022-10-10T08:26:51.012Z,12.52
2022-10-10T08:29:37.159Z,14.38
2022-10-10T08:32:23.324Z,18.02
2022-10-10T08:35:08.846Z,18.83
2022-10-10T08:37:54.983Z,14.98
2022-10-10T08:40:52.034Z,17.08
2022-10-10T08:43:52.567Z,16.60
2022-10-10T08:46:54.879Z,14.10
2022-10-10T08:50:00.427Z,19.25
2022-10-10T08:52:55.084Z,14.15
2022-10-10T08:55:43.772Z,11.87
2022-10-10T08:58:38.721Z,14.10
2022-10-10T09:01:32.293Z,16.77
2022-10-10T09:04:19.566Z,23.23
2022-10-10T09:07:31.755Z,14.73
2022-10-10T09:10:31.812Z,18.00
2022-10-10T09:13:59.102Z,21.48
2022-10-10T09:16:54.927Z,13.05
2022-10-10T09:20:10.839Z,14.82
2022-10-10T09:23:16.834Z,12.10
2022-10-10T09:26:13.031Z,16.75
2022-10-10T09:29:05.184Z,12.98
2022-10-10T09:31:56.092Z,17.25
2022-10-10T09:34:47.467Z,17.38
2022-10-10T09:37:53.429Z,20.30
2022-10-10T09:40:47.100Z,12.68
2022-10-10T09:43:35.127Z,24.42
2022-10-10T09:46:20.450Z,20.05
2022-10-10T09:49:06.150Z,17.00
2022-10-10T09:51:51.779Z,14.70
2022-10-10T09:54:38.068Z,14.13
2022-10-10T09:57:29.053Z,15.65
2022-10-10T10:00:20.632Z,13.52
2022-10-10T10:03:09.197Z,17.45
2022-10-10T10:05:57.172Z,11.77
2022-10-10T10:08:49.782Z,15.65
2022-10-10T10:11:42.895Z,23.17
2022-10-10T10:14:32.185Z,18.27
2022-10-10T10:17:22.256Z,19.08
2022-10-10T10:20:30.265Z,16.70
2022-10-10T10:23:31.323Z,22.75
2022-10-10T10:26:44.956Z,16.83
2022-10-10T10:29:33.719Z,15.55
2022-10-10T10:32:31.428Z,15.45
2022-10-10T10:35:28.794Z,12.25
2022-10-10T10:38:57.700Z,22.70
2022-10-10T10:42:05.523Z,16.88
2022-10-10T10:45:20.955Z,16.02
2022-10-10T10:48:24.947Z,19.02
2022-10-10T10:51:32.099Z,14.45
2022-10-10T10:54:39.544Z,15.95
2022-10-10T10:58:04.764Z,25.55
2022-10-10T11:01:23.598Z,19.60
2022-10-10T11:05:18.330Z,22.55
2022-10-10T11:08:08.236Z,15.25
2022-10-10T11:10:56.772Z,13.05
2022-10-10T11:14:07.114Z,14.02
2022-10-10T11:17:01.192Z,19.35
2022-10-10T11:20:03.976Z,23.67
2022-10-10T11:23:12.189Z,15.43
2022-10-10T11:26:02.723Z,12.60
2022-10-10T11:28:57.113Z,19.50
2022-10-10T11:32:11.205Z,20.02
2022-10-10T11:35:18.077Z,22.33
2022-10-10T11:38:17.020Z,19.45
2022-10-10T11:41:27.875Z,14.00
2022-10-10T11:44:34.296Z,15.70
2022-10-10T11:47:35.056Z,18.40
2022-10-10T11:50:34.064Z,24.38
2022-10-10T11:53:41.225Z,14.02
2022-10-10T11:56:39.122Z,20.25
2022-10-10T11:59:35.020Z,21.20
2022-10-10T12:02:31.004Z,14.23
2022-10-10T12:05:29.314Z,21.08
2022-10-10T12:09:06.206Z,19.75
2022-10-10T12:12:06.147Z,18.67
2022-10-10T12:14:56.028Z,8.38
2022-10-10T12:17:46.111Z,14.35
2022-10-10T12:20:35.430Z,9.35
2022-10-10T12:23:31.829Z,9.85
2022-10-10T12:26:21.671Z,9.35
2022-10-10T12:29:10.687Z,4.05
2022-10-10T12:32:13.499Z,5.63
2022-10-10T12:35:03.304Z,6.93
2022-10-10T12:38:07.476Z,7.63
2022-10-10T12:41:12.856Z,8.30
2022-10-10T12:44:08.342Z,9.30
2022-10-10T12:47:15.750Z,8.93
2022-10-10T12:50:04.239Z,5.85
2022-10-10T12:53:01.781Z,5.35
2022-10-10T12:55:51.530Z,5.78
2022-10-10T12:58:41.321Z,7.43
2022-10-10T13:01:32.012Z,3.97
2022-10-10T13:04:18.949Z,2.17
2022-10-10T13:07:04.999Z,4.78
2022-10-10T13:09:53.009Z,7.95
2022-10-10T13:12:38.436Z,4.65
2022-10-10T13:15:27.265Z,4.15
2022-10-10T13:18:12.780Z,4.88
2022-10-10T13:20:58.290Z,4.25
2022-10-10T13:26:53.891Z,4.63
2022-10-10T13:29:40.914Z,7.35
2022-10-10T13:32:33.361Z,4.10
2022-10-10T13:35:24.981Z,8.23
2022-10-10T13:38:13.379Z,9.57
2022-10-10T13:40:59.229Z,13.60
2022-10-10T13:43:48.003Z,5.63
2022-10-10T13:46:33.893Z,11.52
2022-10-10T13:49:28.411Z,10.25
2022-10-10T13:52:24.009Z,11.00
2022-10-10T13:55:24.981Z,19.20
2022-10-10T13:58:10.975Z,15.48
2022-10-10T14:01:02.872Z,16.58
2022-10-10T14:03:51.571Z,25.10
2022-10-10T14:06:37.279Z,17.08
2022-10-10T14:09:30.619Z,24.48
2022-10-10T14:12:25.330Z,23.98
2022-10-10T14:15:29.695Z,24.20
2022-10-10T14:18:17.326Z,18.55
2022-10-10T14:21:03.337Z,25.40
2022-10-10T14:23:48.931Z,20.70
2022-10-10T14:26:36.272Z,15.93
2022-10-10T14:29:22.520Z,15.55
2022-10-10T14:32:13.079Z,10.98
2022-10-10T14:34:58.634Z,19.60
2022-10-10T14:37:44.021Z,15.48
2022-10-10T14:40:31.924Z,11.25
2022-10-10T14:43:20.510Z,16.60
2022-10-10T14:46:06.383Z,13.48
2022-10-10T14:48:51.562Z,18.73
2022-10-10T14:51:38.519Z,13.68
2022-10-10T14:54:23.719Z,15.15
2022-10-10T14:57:14.536Z,16.60
2022-10-10T15:00:00.155Z,8.73
2022-10-10T15:02:46.132Z,12.82
2022-10-10T15:05:31.676Z,13.25
2022-10-10T15:08:19.177Z,9.20
2022-10-10T15:11:05.357Z,10.23
2022-10-10T15:13:50.772Z,12.35
2022-10-10T15:16:36.121Z,13.60
2022-10-10T15:19:21.621Z,14.13
2022-10-10T15:22:07.092Z,14.02
2022-10-10T15:24:52.643Z,14.18
2022-10-10T15:27:38.615Z,12.40
2022-10-10T15:30:24.875Z,11.50
2022-10-10T15:33:10.535Z,14.30
2022-10-10T15:36:10.002Z,9.77
2022-10-10T15:38:58.492Z,10.90
2022-10-10T15:41:43.681Z,11.32
2022-10-10T15:44:29.270Z,11.30
2022-10-10T15:47:16.641Z,13.88
2022-10-10T15:50:02.215Z,9.93
2022-10-10T15:52:48.930Z,13.57
2022-10-10T15:55:40.447Z,12.13
2022-10-10T15:58:26.046Z,11.15
2022-10-10T16:01:22.497Z,10.77
2022-10-10T16:04:07.729Z,11.50
2022-10-10T16:07:19.937Z,15.23
2022-10-10T16:10:01.180Z,11.95
2022-10-10T16:12:46.934Z,17.10
2022-10-10T16:15:32.488Z,12.38
2022-10-10T16:18:20.405Z,15.05
2022-10-10T16:21:08.009Z,18.83
2022-10-10T16:23:57.896Z,14.68
2022-10-10T16:26:43.559Z,8.93
2022-10-10T16:29:29.061Z,14.27
2022-10-10T16:32:14.776Z,11.98
2022-10-10T16:34:59.901Z,17.65
2022-10-10T16:37:45.427Z,17.38
2022-10-10T16:40:30.943Z,16.10
2022-10-10T16:43:17.357Z,11.93
2022-10-10T16:46:04.240Z,17.73
2022-10-10T16:48:49.879Z,15.93
2022-10-10T16:51:35.611Z,15.43
2022-10-10T16:54:20.773Z,27.40
2022-10-10T16:57:06.467Z,16.23
2022-10-10T16:59:55.718Z,23.25
2022-10-10T17:02:42.365Z,17.00
2022-10-10T17:05:27.909Z,17.60
2022-10-10T17:08:13.773Z,16.48
2022-10-10T17:11:00.703Z,22.88
2022-10-10T17:13:46.826Z,18.83
2022-10-10T17:19:38.064Z,18.98
2022-10-10T17:22:23.396Z,22.98
2022-10-10T17:25:09.588Z,18.38
2022-10-10T17:27:54.716Z,29.77
2022-10-10T17:30:45.620Z,19.38
2022-10-10T17:33:31.336Z,19.77
2022-10-10T17:36:22.399Z,13.27
2022-10-10T17:39:07.951Z,17.85
2022-10-10T17:41:53.346Z,18.33
2022-10-10T17:44:43.679Z,20.85
2022-10-10T17:47:33.810Z,20.98
2022-10-10T17:50:19.240Z,27.92
2022-10-10T17:53:04.771Z,19.70
2022-10-10T17:55:50.483Z,15.30
2022-10-10T17:58:35.696Z,16.02
2022-10-10T18:01:22.126Z,17.27
2022-10-10T18:04:07.752Z,25.17
2022-10-10T18:06:53.236Z,23.17
2022-10-10T18:09:38.875Z,18.27
2022-10-10T18:12:24.375Z,21.40
2022-10-10T18:15:10.552Z,20.95
2022-10-10T18:17:56.080Z,23.50
2022-10-10T18:20:41.616Z,24.10
2022-10-10T18:23:28.131Z,16.35
2022-10-10T18:26:16.886Z,25.88
2022-10-10T18:29:02.442Z,11.70
2022-10-10T18:31:48.165Z,21.50
2022-10-10T18:34:36.519Z,24.70
2022-10-10T18:37:22.056Z,23.60
2022-10-10T18:40:08.139Z,18.48
2022-10-10T18:42:55.963Z,20.35
2022-10-10T18:45:41.411Z,20.33
2022-10-10T18:48:27.287Z,19.33
2022-10-10T18:51:15.212Z,16.70
2022-10-10T18:54:08.267Z,24.88
2022-10-10T18:56:53.554Z,27.40
2022-10-10T18:59:39.252Z,25.55
2022-10-10T19:02:24.584Z,21.40
2022-10-10T19:05:09.962Z,19.48
2022-10-10T19:07:58.158Z,23.27
2022-10-10T19:10:48.798Z,23.02
2022-10-10T19:13:37.652Z,20.90
2022-10-10T19:16:23.095Z,26.25
2022-10-10T19:19:10.225Z,31.73
2022-10-10T19:21:56.471Z,28.95
2022-10-10T19:24:42.324Z,35.95
2022-10-10T19:27:27.463Z,24.00
2022-10-10T19:30:13.415Z,24.02
2022-10-10T19:32:59.316Z,29.70
2022-10-10T19:35:52.085Z,26.27
2022-10-10T19:38:40.235Z,32.42
2022-10-10T19:41:25.988Z,16.92
2022-10-10T19:44:11.461Z,20.95
2022-10-10T19:46:56.672Z,28.15
2022-10-10T19:49:42.152Z,24.20
2022-10-10T19:52:27.628Z,24.73
2022-10-10T19:55:13.056Z,27.52
2022-10-10T19:57:58.315Z,23.42
2022-10-10T20:00:43.703Z,22.30
2022-10-10T20:03:29.161Z,22.70
2022-10-10T20:06:17.178Z,19.05
2022-10-10T20:09:03.554Z,18.15
2022-10-10T20:11:51.367Z,27.33
2022-10-10T20:14:36.886Z,24.95
2022-10-10T20:17:22.445Z,22.23
2022-10-10T20:20:08.320Z,24.13
2022-10-10T20:22:53.864Z,22.58
2022-10-10T20:25:41.046Z,26.60
2022-10-10T20:28:26.689Z,20.98
2022-10-10T20:31:19.785Z,15.90
2022-10-10T20:34:06.618Z,27.45
2022-10-10T20:36:52.508Z,19.15
2022-10-10T20:39:37.823Z,21.50
2022-10-10T20:42:23.004Z,18.13
2022-10-10T20:45:11.420Z,25.73
2022-10-10T20:47:57.279Z,21.92
2022-10-10T20:50:42.579Z,17.88
2022-10-10T20:53:28.127Z,20.50
2022-10-10T20:56:13.726Z,18.48
2022-10-10T20:58:59.797Z,26.17
2022-10-10T21:01:47.916Z,19.63
2022-10-10T21:04:36.224Z,20.02
2022-10-10T21:07:21.766Z,22.77
2022-10-10T21:10:07.779Z,20.63
2022-10-10T21:12:53.300Z,17.95
2022-10-10T21:15:43.221Z,24.63
2022-10-10T21:18:28.670Z,17.20
2022-10-10T21:21:14.277Z,17.55
2022-10-10T21:24:01.177Z,18.35
2022-10-10T21:26:48.975Z,14.52
2022-10-10T21:29:34.363Z,20.80
2022-10-10T21:32:20.452Z,20.98
2022-10-10T21:35:05.916Z,21.35
2022-10-10T21:37:52.815Z,27.42
2022-10-10T21:40:38.451Z,24.13
2022-10-10T21:43:23.865Z,25.17
2022-10-10T21:46:13.309Z,21.52
2022-10-10T21:49:02.163Z,23.98
2022-10-10T21:51:47.811Z,20.42
2022-10-10T21:54:33.638Z,27.48
2022-10-10T21:57:18.936Z,24.70
2022-10-10T22:00:07.071Z,21.73
2022-10-10T22:02:52.415Z,22.63
2022-10-10T22:05:40.512Z,21.42
2022-10-10T22:08:26.267Z,21.70
2022-10-10T22:11:15.290Z,24.15
2022-10-10T22:14:02.358Z,18.15
2022-10-10T22:16:48.076Z,18.42
2022-10-10T22:19:33.286Z,22.13
2022-10-10T22:22:18.976Z,22.65
2022-10-10T22:25:06.250Z,23.90
2022-10-10T22:27:56.313Z,16.58
2022-10-10T22:30:43.204Z,17.60
2022-10-10T22:33:28.873Z,18.58
2022-10-10T22:36:14.486Z,19.08
2022-10-10T22:39:00.458Z,15.20
2022-10-10T22:41:46.064Z,18.10
2022-10-10T22:44:31.214Z,17.75
2022-10-10T22:47:16.747Z,16.85
2022-10-10T22:50:02.289Z,22.77
2022-10-10T22:52:47.889Z,16.83
2022-10-10T22:55:33.643Z,21.38
2022-10-10T22:58:19.071Z,23.17
2022-10-10T23:01:06.633Z,20.48
2022-10-10T23:04:00.145Z,27.10
2022-10-10T23:06:46.289Z,19.00
2022-10-10T23:09:31.783Z,22.35
2022-10-10T23:12:17.240Z,15.98
2022-10-10T23:15:02.639Z,17.42
2022-10-10T23:17:47.859Z,28.15
2022-10-10T23:20:33.426Z,17.75
2022-10-10T23:23:19.120Z,13.23
2022-10-10T23:26:09.053Z,17.42
2022-10-10T23:28:54.782Z,21.25
2022-10-10T23:31:40.178Z,18.45
2022-10-10T23:34:25.728Z,16.15
2022-10-10T23:37:11.350Z,23.92
2022-10-10T23:39:56.363Z,18.23
2022-10-10T23:42:41.740Z,21.92
2022-10-10T23:45:27.119Z,16.45
2022-10-10T23:48:12.538Z,16.25
2022-10-10T23:50:57.756Z,18.45
2022-10-10T23:53:43.266Z,27.60
2022-10-10T23:56:28.671Z,18.65
2022-10-10T23:59:14.243Z,17.30
